Time;durP1;ratioP1;P1;durP2;ratioP2;P2;SDS_P1;SDS_P2;PMS_P1;PMS_P2;Temp;Humidity;BMP_temperature;BMP_pressure;BME280_temperature;BME280_humidity;BME280_pressure;Samples;Min_cycle;Max_cycle;Signal;HPM_P1;HPM_P2
2023/10/05 00:01:17;;;;;;;0.00;0.00;;;;;;;11.81;59.83;100764.97;5285767;26;20078;-95
2023/10/05 00:03:47;;;;;;;;;;;;;;;11.66;59.82;100770.50;5328289;26;20455;-93
2023/10/05 00:06:17;;;;;;;0.00;0.00;;;;;;;11.83;59.84;100764.94;5308700;26;19965;-95
2023/10/05 00:08:49;;;;;;;0.15;0.15;;;;;;;11.59;59.82;100768.87;5308610;26;20087;-93
2023/10/05 00:11:24;;;;;;;0.43;0.37;;;;;;;11.72;59.83;100772.97;5308561;26;20068;-92
2023/10/05 00:13:53;;;;;;;0.43;0.43;;;;;;;11.78;59.83;100767.66;5309532;26;20095;-94
2023/10/05 00:16:22;;;;;;;0.70;0.70;;;;;;;11.71;59.83;100778.22;5289332;26;20052;-95
2023/10/05 00:18:51;;;;;;;0.03;0.03;;;;;;;11.78;59.83;100778.09;5307886;26;20060;-93
2023/10/05 00:21:20;;;;;;;0.45;0.20;;;;;;;11.81;59.83;100775.41;5309553;26;20063;-94
2023/10/05 00:23:51;;;;;;;0.00;0.00;;;;;;;11.68;59.83;100777.41;5326872;26;20773;-93
2023/10/05 00:26:20;;;;;;;0.00;0.00;;;;;;;11.53;59.82;100771.63;5307716;26;20074;-93
2023/10/05 00:28:55;;;;;;;0.55;0.55;;;;;;;11.87;59.83;100771.84;5307927;26;20138;-93
2023/10/05 00:31:24;;;;;;;0.62;0.22;;;;;;;11.69;59.83;100778.25;5308809;26;20150;-92
2023/10/05 00:33:55;;;;;;;0.00;0.00;;;;;;;11.85;59.84;100771.00;5308297;26;20032;-95
2023/10/05 00:36:32;;;;;;;0.00;0.00;;;;;;;11.76;59.83;100771.16;5308965;26;20079;-94
2023/10/05 00:39:01;;;;;;;0.00;0.00;;;;;;;11.70;59.83;100769.53;5310360;26;20075;-94
2023/10/05 00:41:28;;;;;;;0.00;0.00;;;;;;;11.68;59.83;100771.31;5307581;26;20084;-95
2023/10/05 00:43:53;;;;;;;0.00;0.00;;;;;;;11.43;59.81;100772.69;5307506;26;20132;-96
2023/10/05 00:46:20;;;;;;;0.00;0.00;;;;;;;11.45;59.81;100763.09;5307504;26;20118;-95
2023/10/05 00:51:30;;;;;;;0.00;0.00;;;;;;;11.50;59.81;100761.25;5312950;26;20068;-94
2023/10/05 00:53:56;;;;;;;1.95;0.85;;;;;;;11.64;59.82;100762.69;5308384;26;20056;-95
2023/10/05 00:56:22;;;;;;;0.45;0.40;;;;;;;11.72;59.83;100759.94;5307812;26;20423;-96
2023/10/05 00:58:50;;;;;;;0.50;0.50;;;;;;;11.60;59.83;100758.44;5307323;26;20110;-94
2023/10/05 01:01:16;;;;;;;3.90;0.50;;;;;;;11.70;59.83;100759.09;5307835;26;20080;-93
2023/10/05 01:04:17;;;;;;;0.77;0.37;;;;;;;11.69;59.83;100760.00;5307651;26;20067;-95
2023/10/05 01:06:41;;;;;;;0.00;0.00;;;;;;;11.79;59.83;100755.47;5329326;26;20097;-95
2023/10/05 01:09:32;;;;;;;0.15;0.15;;;;;;;11.55;59.82;100760.25;5311038;26;20060;-95
2023/10/05 01:14:46;;;;;;;0.37;0.22;;;;;;;11.62;59.82;100742.75;5302877;26;20073;-95
2023/10/05 01:17:12;;;;;;;0.00;0.00;;;;;;;11.72;59.83;100751.25;5307471;26;20111;-94
2023/10/05 01:19:39;;;;;;;0.08;0.08;;;;;;;11.63;59.82;100744.47;5307415;26;20116;-94
2023/10/05 01:22:11;;;;;;;0.30;0.30;;;;;;;11.86;59.84;100744.03;5326387;26;20060;-93
2023/10/05 01:24:36;;;;;;;5.37;0.47;;;;;;;11.82;59.82;100744.97;5310963;26;20025;-94
2023/10/05 01:27:03;;;;;;;0.52;0.52;;;;;;;11.84;59.83;100732.78;5307219;26;22520;-93
2023/10/05 01:29:28;;;;;;;0.32;0.32;;;;;;;11.83;59.83;100737.12;5307625;26;20078;-94
2023/10/05 01:31:55;;;;;;;0.20;0.20;;;;;;;11.84;59.84;100733.62;5307419;26;20060;-94
2023/10/05 01:34:20;;;;;;;0.13;0.13;;;;;;;11.91;59.84;100734.34;5307540;26;20135;-93
2023/10/05 01:36:46;;;;;;;0.20;0.20;;;;;;;11.90;59.83;100735.25;5307876;26;20053;-94
2023/10/05 01:39:12;;;;;;;0.00;0.00;;;;;;;11.84;59.84;100735.37;5306608;26;20091;-93
2023/10/05 01:41:38;;;;;;;0.00;0.00;;;;;;;12.07;59.84;100727.91;5308100;26;20064;-95
2023/10/05 01:44:04;;;;;;;0.90;0.90;;;;;;;12.13;59.84;100713.84;5307448;26;20361;-93
2023/10/05 01:46:35;;;;;;;0.00;0.00;;;;;;;11.91;59.84;100723.91;5307615;26;20064;-94
2023/10/05 01:49:01;;;;;;;0.40;0.35;;;;;;;11.95;59.84;100722.94;5308785;26;20433;-95
2023/10/05 01:51:27;;;;;;;0.00;0.00;;;;;;;11.86;59.84;100720.56;5307521;26;20079;-94
2023/10/05 01:54:03;;;;;;;0.10;0.10;;;;;;;11.74;59.82;100724.25;5307347;26;20096;-94
2023/10/05 01:56:29;;;;;;;1.20;1.02;;;;;;;11.78;59.83;100720.69;5310626;26;20134;-92
2023/10/05 01:58:55;;;;;;;0.00;0.00;;;;;;;11.89;59.83;100723.94;5326140;26;20429;-94
2023/10/05 02:01:21;;;;;;;0.57;0.57;;;;;;;11.99;59.85;100721.97;5308412;26;20080;-94
2023/10/05 02:03:52;;;;;;;0.20;0.20;;;;;;;11.99;59.84;100725.44;5308039;26;20072;-93
2023/10/05 02:06:18;;;;;;;0.65;0.28;;;;;;;12.09;59.85;100722.66;5326948;26;20052;-93
2023/10/05 02:08:43;;;;;;;0.47;0.47;;;;;;;12.16;59.85;100716.41;5307116;26;22062;-95
2023/10/05 02:11:09;;;;;;;0.08;0.08;;;;;;;11.96;59.84;100717.69;5307497;26;20161;-94
2023/10/05 02:13:35;;;;;;;0.22;0.22;;;;;;;12.04;59.84;100706.22;5307760;26;20074;-94
2023/10/05 02:16:02;;;;;;;0.20;0.20;;;;;;;11.97;59.83;100711.59;5308034;26;20443;-94
2023/10/05 02:18:30;;;;;;;0.08;0.08;;;;;;;12.06;59.85;100700.06;5308098;26;20086;-95
2023/10/05 02:21:09;;;;;;;0.50;0.25;;;;;;;11.63;59.83;100706.22;5309165;26;20064;-94
2023/10/05 02:23:40;;;;;;;0.03;0.03;;;;;;;11.79;59.83;100696.34;5306508;27;20060;-93
2023/10/05 02:26:23;;;;;;;0.60;0.55;;;;;;;11.67;59.82;100696.56;5283905;27;20049;-94
2023/10/05 02:28:48;;;;;;;0.00;0.00;;;;;;;11.62;59.82;100685.41;5322878;26;20117;-93
2023/10/05 02:31:14;;;;;;;0.00;0.00;;;;;;;11.64;59.82;100687.06;5305285;26;20056;-94
2023/10/05 02:33:40;;;;;;;27.27;0.73;;;;;;;11.70;59.82;100686.06;5303768;27;20193;-94
2023/10/05 02:36:26;;;;;;;0.00;0.00;;;;;;;11.69;59.82;100686.97;5300208;27;20454;-94
2023/10/05 02:38:53;;;;;;;0.00;0.00;;;;;;;11.52;59.81;100684.72;5282015;27;20483;-94
2023/10/05 02:41:36;;;;;;;1.67;1.30;;;;;;;11.31;59.80;100688.59;5285740;26;20123;-92
2023/10/05 02:44:01;;;;;;;0.00;0.00;;;;;;;11.34;59.81;100687.69;5309971;26;20446;-92
2023/10/05 02:46:27;;;;;;;0.00;0.00;;;;;;;11.57;59.81;100689.81;5306389;26;20092;-92
2023/10/05 02:48:53;;;;;;;0.00;0.00;;;;;;;11.44;59.81;100688.37;5303201;27;20068;-93
2023/10/05 02:51:18;;;;;;;0.52;0.52;;;;;;;11.45;59.81;100687.47;5286847;26;20471;-93
2023/10/05 02:53:46;;;;;;;0.77;0.77;;;;;;;11.50;59.81;100696.94;5307140;26;20068;-92
2023/10/05 02:56:27;;;;;;;0.00;0.00;;;;;;;11.46;59.82;100689.19;5325709;26;20158;-94
2023/10/05 02:58:55;;;;;;;1.08;0.05;;;;;;;11.48;59.81;100692.62;5308171;26;20115;-93
2023/10/05 03:01:24;;;;;;;1.02;0.98;;;;;;;11.20;59.80;100701.00;5306872;26;20068;-92
2023/10/05 03:03:51;;;;;;;0.00;0.00;;;;;;;11.26;59.80;100697.41;5324756;26;20075;-92
2023/10/05 03:06:17;;;;;;;0.68;0.32;;;;;;;11.27;59.80;100701.75;5306354;26;20072;-93
2023/10/05 03:08:44;;;;;;;1.75;1.20;;;;;;;11.55;59.82;100691.59;5324856;26;20078;-94
2023/10/05 03:11:09;;;;;;;0.00;0.00;;;;;;;11.20;59.80;100702.75;5325992;26;20339;-94
2023/10/05 03:13:38;;;;;;;0.40;0.40;;;;;;;11.19;59.80;100694.09;5307650;26;20073;-92
2023/10/05 03:16:09;;;;;;;1.48;0.20;;;;;;;11.03;59.79;100705.66;5308328;26;20097;-94
2023/10/05 03:18:41;;;;;;;1.17;1.08;;;;;;;10.90;59.78;100705.06;5308403;26;20060;-94
2023/10/05 03:21:12;;;;;;;0.00;0.00;;;;;;;10.95;59.78;100690.19;5309559;26;20078;-94
2023/10/05 03:23:38;;;;;;;0.08;0.08;;;;;;;11.00;59.79;100698.78;5308540;26;20076;-95
2023/10/05 03:26:04;;;;;;;0.70;0.35;;;;;;;10.84;59.77;100710.34;5308017;26;20024;-94
2023/10/05 03:28:30;;;;;;;0.00;0.00;;;;;;;10.99;59.79;100707.47;5291036;26;20268;-93
2023/10/05 03:30:57;;;;;;;0.00;0.00;;;;;;;11.25;59.80;100707.00;5308371;26;20129;-94
2023/10/05 03:33:24;;;;;;;0.55;0.55;;;;;;;11.08;59.79;100706.44;5308331;26;20423;-93
2023/10/05 03:35:50;;;;;;;0.00;0.00;;;;;;;11.13;59.79;100711.59;5307612;26;20064;-94
2023/10/05 03:38:19;;;;;;;0.40;0.20;;;;;;;11.02;59.79;100706.56;5307830;26;20411;-94
2023/10/05 03:40:48;;;;;;;0.00;0.00;;;;;;;10.99;59.79;100709.22;5310758;26;20135;-96
2023/10/05 03:43:14;;;;;;;0.00;0.00;;;;;;;11.03;59.78;100719.56;5308961;26;20057;-95
2023/10/05 03:45:39;;;;;;;0.00;0.00;;;;;;;10.99;59.79;100724.84;5308628;26;20116;-95
2023/10/05 03:48:06;;;;;;;0.00;0.00;;;;;;;11.02;59.79;100722.19;5308424;26;20649;-96
2023/10/05 03:50:31;;;;;;;0.00;0.00;;;;;;;10.73;59.77;100725.31;5325609;26;20068;-93
2023/10/05 03:52:57;;;;;;;0.00;0.00;;;;;;;10.71;59.77;100722.75;5307359;26;20116;-93
2023/10/05 03:55:24;;;;;;;0.05;0.05;;;;;;;10.63;59.77;100714.19;5307767;26;20070;-94
2023/10/05 03:57:50;;;;;;;5.45;1.20;;;;;;;10.58;59.76;100703.00;5307757;26;20078;-93
2023/10/05 04:02:46;;;;;;;0.00;0.00;;;;;;;10.87;59.78;100691.19;5309838;26;20071;-92
2023/10/05 04:05:12;;;;;;;0.22;0.22;;;;;;;10.67;59.77;100700.25;5307116;26;20076;-92
2023/10/05 04:07:39;;;;;;;0.00;0.00;;;;;;;10.74;59.77;100698.37;5305837;26;28435;-91
2023/10/05 04:10:06;;;;;;;0.00;0.00;;;;;;;10.69;59.78;100706.28;5306868;26;20127;-91
2023/10/05 04:12:32;;;;;;;0.00;0.00;;;;;;;10.72;59.77;100710.59;5302918;27;20075;-91
2023/10/05 04:15:00;;;;;;;0.10;0.10;;;;;;;10.82;59.78;100719.94;5283861;26;20112;-91
2023/10/05 04:17:26;;;;;;;0.00;0.00;;;;;;;10.74;59.77;100714.87;5306939;26;20078;-90
2023/10/05 04:19:52;;;;;;;0.00;0.00;;;;;;;10.55;59.76;100715.22;5303038;27;20169;-92
2023/10/05 04:22:18;;;;;;;1.77;0.90;;;;;;;10.64;59.77;100725.47;5323682;26;20056;-93
2023/10/05 04:24:44;;;;;;;0.00;0.00;;;;;;;10.87;59.78;100728.53;5307386;26;20408;-92
2023/10/05 04:27:10;;;;;;;0.28;0.28;;;;;;;10.67;59.77;100728.91;5307902;26;20068;-92
2023/10/05 04:29:37;;;;;;;0.15;0.15;;;;;;;10.51;59.76;100726.56;5307201;26;20074;-92
2023/10/05 04:32:06;;;;;;;0.28;0.28;;;;;;;10.63;59.77;100729.81;5309418;26;20425;-94
2023/10/05 04:34:32;;;;;;;0.08;0.03;;;;;;;10.48;59.76;100730.06;5325775;26;20057;-91
2023/10/05 04:36:58;;;;;;;0.05;0.05;;;;;;;10.61;59.76;100726.38;5307219;26;20107;-93
2023/10/05 04:39:32;;;;;;;0.10;0.10;;;;;;;10.39;59.75;100725.00;5307182;26;20120;-92
2023/10/05 04:42:04;;;;;;;0.00;0.00;;;;;;;10.40;59.76;100729.31;5309515;26;20039;-92
2023/10/05 04:44:30;;;;;;;0.98;0.68;;;;;;;10.37;59.75;100732.81;5326752;26;20061;-93
2023/10/05 04:46:56;;;;;;;0.00;0.00;;;;;;;10.38;59.75;100737.16;5307726;26;20116;-92
2023/10/05 04:49:24;;;;;;;8.68;0.32;;;;;;;10.48;59.76;100740.47;5307732;26;20072;-94
2023/10/05 04:51:51;;;;;;;0.00;0.00;;;;;;;10.83;59.78;100737.28;5308216;26;20067;-93
2023/10/05 04:54:18;;;;;;;0.00;0.00;;;;;;;10.70;59.78;100739.25;5307553;26;20071;-93
2023/10/05 05:04:40;;;;;;;0.00;0.00;;;;;;;10.30;59.74;100741.63;5309102;26;20056;-93
2023/10/05 05:07:06;;;;;;;0.00;0.00;;;;;;;10.33;59.75;100740.72;5323922;26;20078;-93
2023/10/05 05:09:35;;;;;;;0.15;0.15;;;;;;;10.28;59.74;100742.53;5324615;26;20067;-92
2023/10/05 05:12:05;;;;;;;0.17;0.17;;;;;;;10.39;59.75;100751.87;5325352;26;20066;-92
2023/10/05 05:14:33;;;;;;;;;;;;;;;10.71;59.77;100751.38;5307333;26;20056;-93
2023/10/05 05:17:02;;;;;;;0.20;0.20;;;;;;;10.80;59.77;100759.91;5307471;26;19967;-93
2023/10/05 05:19:28;;;;;;;42.80;1.50;;;;;;;10.75;59.77;100758.25;5307407;26;20063;-92
2023/10/05 05:21:53;;;;;;;0.57;0.57;;;;;;;10.90;59.78;100754.53;5289560;26;20057;-94
2023/10/05 05:24:18;;;;;;;0.80;0.55;;;;;;;10.59;59.76;100764.59;5306661;26;23518;-94
2023/10/05 05:26:46;;;;;;;0.10;0.10;;;;;;;10.44;59.75;100759.66;5306567;26;20084;-93
2023/10/05 05:29:13;;;;;;;0.00;0.00;;;;;;;10.36;59.75;100753.66;5307136;26;20060;-92
2023/10/05 05:31:39;;;;;;;0.00;0.00;;;;;;;10.33;59.76;100756.31;5288433;26;20048;-93
2023/10/05 05:34:06;;;;;;;2.00;1.80;;;;;;;10.43;59.76;100752.72;5310115;26;20067;-94
2023/10/05 05:36:36;;;;;;;0.10;0.10;;;;;;;10.41;59.76;100765.75;5308111;26;20693;-95
2023/10/05 05:39:03;;;;;;;0.32;0.32;;;;;;;10.44;59.76;100777.88;5308060;26;20110;-93
2023/10/05 05:41:28;;;;;;;0.10;0.10;;;;;;;10.72;59.77;100776.53;5303958;27;20036;-93
2023/10/05 05:43:55;;;;;;;0.00;0.00;;;;;;;10.66;59.77;100770.59;5284726;27;22808;-95
2023/10/05 05:46:21;;;;;;;0.75;0.75;;;;;;;10.64;59.77;100767.97;5285394;27;20053;-95
2023/10/05 05:48:52;;;;;;;0.85;0.85;;;;;;;10.68;59.76;100764.47;5284855;27;20092;-92
2023/10/05 05:51:17;;;;;;;0.30;0.30;;;;;;;10.82;59.78;100760.75;5286801;27;20083;-93
2023/10/05 05:53:43;;;;;;;0.05;0.05;;;;;;;10.97;59.78;100756.16;5285034;27;20343;-93
2023/10/05 05:56:16;;;;;;;0.10;0.10;;;;;;;11.01;59.79;100757.81;5285379;27;20057;-93
2023/10/05 05:58:44;;;;;;;0.65;0.65;;;;;;;11.16;59.80;100761.03;5303248;27;20061;-94
2023/10/05 06:01:09;;;;;;;0.00;0.00;;;;;;;11.18;59.80;100760.13;5285468;27;20149;-94
2023/10/05 06:03:35;;;;;;;0.00;0.00;;;;;;;11.31;59.80;100745.97;5283651;27;20107;-91
2023/10/05 06:06:03;;;;;;;0.00;0.00;;;;;;;11.44;59.81;100746.59;5285433;27;20103;-93
2023/10/05 06:08:29;;;;;;;0.03;0.03;;;;;;;11.21;59.80;100744.41;5287395;27;20055;-93
2023/10/05 06:10:56;;;;;;;0.00;0.00;;;;;;;11.27;59.80;100753.88;5287845;27;20057;-93
2023/10/05 06:13:22;;;;;;;0.00;0.00;;;;;;;11.59;59.81;100755.84;5288312;27;20086;-94
2023/10/05 06:15:48;;;;;;;0.28;0.28;;;;;;;11.66;59.82;100744.41;5267072;27;20114;-90
2023/10/05 06:18:13;;;;;;;0.03;0.03;;;;;;;11.72;59.83;100735.59;5283272;27;20068;-90
2023/10/05 06:20:47;;;;;;;0.08;0.05;;;;;;;11.95;59.83;100733.38;5283900;27;20083;-93
2023/10/05 06:23:19;;;;;;;0.00;0.00;;;;;;;12.00;59.84;100734.12;5285580;27;20072;-93
2023/10/05 06:25:48;;;;;;;0.05;0.05;;;;;;;12.17;59.85;100732.03;5288336;27;20477;-92
2023/10/05 06:28:24;;;;;;;0.00;0.00;;;;;;;12.22;59.85;100731.91;5285213;27;20059;-93
2023/10/05 06:30:50;;;;;;;0.28;0.28;;;;;;;12.69;59.88;100727.28;5284968;27;20108;-92
2023/10/05 06:33:15;;;;;;;0.00;0.00;;;;;;;12.58;59.86;100730.19;5284681;27;20083;-92
2023/10/05 06:35:41;;;;;;;0.00;0.00;;;;;;;12.75;59.88;100724.53;5305236;27;20060;-94
2023/10/05 06:38:07;;;;;;;0.00;0.00;;;;;;;13.12;59.90;100729.66;5266537;27;20081;-92
2023/10/05 06:40:33;;;;;;;0.00;0.00;;;;;;;13.30;59.91;100733.56;5286652;27;20122;-91
2023/10/05 06:43:00;;;;;;;0.40;0.20;;;;;;;13.20;59.91;100728.56;5285570;27;20045;-95
2023/10/05 06:45:25;;;;;;;0.57;0.52;;;;;;;13.39;59.91;100722.84;5321393;27;20064;-94
2023/10/05 06:47:51;;;;;;;0.00;0.00;;;;;;;13.56;59.92;100725.84;5284066;27;20106;-90
2023/10/05 06:50:16;;;;;;;0.43;0.43;;;;;;;13.65;59.92;100722.09;5283315;27;20053;-90
2023/10/05 06:52:46;;;;;;;2.65;0.77;;;;;;;14.03;59.96;100724.44;5283481;27;20060;-90
2023/10/05 06:55:14;;;;;;;;;;;;;;;13.98;59.95;100720.25;5301943;27;20065;-91
2023/10/05 06:57:43;;;;;;;1.35;0.73;;;;;;;14.02;59.95;100719.25;5283378;27;19984;-88
2023/10/05 07:00:16;;;;;;;0.00;0.00;;;;;;;14.02;59.96;100720.12;5301980;27;20127;-90
2023/10/05 07:02:47;;;;;;;0.03;0.03;;;;;;;14.41;59.96;100724.97;5285494;27;20045;-90
2023/10/05 07:05:13;;;;;;;0.50;0.30;;;;;;;14.29;59.96;100718.37;5284247;27;20092;-94
2023/10/05 07:07:40;;;;;;;0.00;0.00;;;;;;;14.37;59.96;100720.75;5302049;27;20080;-90
2023/10/05 07:10:06;;;;;;;0.00;0.00;;;;;;;14.50;59.97;100721.25;5284092;27;20816;-91
2023/10/05 07:12:46;;;;;;;0.00;0.00;;;;;;;14.51;59.97;100715.97;5266392;27;20061;-95
2023/10/05 07:15:12;;;;;;;;;;;;;;;14.69;59.98;100715.37;5302912;27;20060;-93
2023/10/05 07:17:37;;;;;;;0.08;0.08;;;;;;;14.98;60.00;100717.00;5283022;27;20020;-93
2023/10/05 07:20:03;;;;;;;0.28;0.28;;;;;;;15.02;60.00;100717.75;5283162;27;20113;-90
2023/10/05 07:22:29;;;;;;;0.43;0.43;;;;;;;15.00;59.99;100717.78;5301470;27;20044;-90
2023/10/05 07:24:56;;;;;;;0.20;0.20;;;;;;;15.32;60.01;100718.41;5283483;27;20330;-91
2023/10/05 07:28:14;;;;;;;0.05;0.05;;;;;;;15.54;60.03;100715.84;5284598;27;20056;-94
2023/10/05 07:46:46;;;;;;;0.10;0.10;;;;;;;16.72;60.10;100694.56;5329927;26;20084;-92
2023/10/05 07:49:13;;;;;;;0.00;0.00;;;;;;;16.78;60.09;100696.09;5310416;26;20443;-92
2023/10/05 07:52:03;;;;;;;4.20;1.12;;;;;;;16.83;60.10;100695.00;5310503;26;20413;-91
2023/10/05 07:54:34;;;;;;;0.00;0.00;;;;;;;17.16;60.12;100699.69;5331137;26;20119;-93
2023/10/05 07:57:15;;;;;;;0.00;0.00;;;;;;;17.36;60.13;100704.94;5314302;26;20066;-95
2023/10/05 08:00:09;;;;;;;;;;;;;;;;;;;;;
2023/10/05 08:12:43;;;;;;;0.00;0.00;;;;;;;18.40;60.18;100700.91;5278385;26;20171;-96
2023/10/05 08:19:00;;;;;;;0.00;0.00;;;;;;;18.65;60.19;100710.28;5328522;26;20069;-95
2023/10/05 08:22:07;;;;;;;2.92;0.20;;;;;;;18.87;60.21;100705.63;5320450;26;20051;-94
2023/10/05 08:24:43;;;;;;;0.22;0.20;;;;;;;19.23;60.22;100697.59;5351329;26;20068;-93
2023/10/05 08:27:16;;;;;;;0.10;0.10;;;;;;;19.38;60.24;100693.28;5328816;26;20067;-93
2023/10/05 08:30:33;;;;;;;0.00;0.00;;;;;;;19.34;60.24;100691.75;5330284;26;20064;-93
2023/10/05 08:33:15;;;;;;;;;;;;;;;;;;;;;
2023/10/05 08:39:04;;;;;;;1.77;0.90;;;;;;;19.47;60.24;100694.59;5250171;27;20109;-93
2023/10/05 08:41:35;;;;;;;0.47;0.45;;;;;;;19.56;60.25;100692.31;5245225;27;20068;-91
2023/10/05 08:44:56;;;;;;;0.00;0.00;;;;;;;19.72;60.26;100692.34;5281645;27;20078;-96
2023/10/05 08:50:08;;;;;;;0.05;0.05;;;;;;;20.06;60.27;100691.31;5207836;27;20066;-96
2023/10/05 08:52:58;;;;;;;0.00;0.00;;;;;;;20.09;60.28;100692.94;5261110;27;20080;-94
2023/10/05 08:55:25;;;;;;;0.13;0.13;;;;;;;20.41;60.29;100688.50;5260155;27;20114;-91
2023/10/05 08:57:52;;;;;;;0.00;0.00;;;;;;;20.69;60.31;100683.31;5336013;26;20115;-91
2023/10/05 09:00:38;;;;;;;0.37;0.37;;;;;;;20.86;60.32;100682.31;5326547;26;20053;-91
2023/10/05 09:06:25;;;;;;;0.00;0.00;;;;;;;20.74;60.31;100681.22;5317917;26;20029;-94
2023/10/05 09:09:30;;;;;;;0.20;0.20;;;;;;;20.92;60.31;100681.09;5285048;27;20747;-93
2023/10/05 09:11:56;;;;;;;0.25;0.25;;;;;;;21.26;60.34;100680.75;5320063;26;20056;-91
2023/10/05 09:14:27;;;;;;;0.10;0.10;;;;;;;21.57;60.36;100678.88;5345432;26;20345;-92
2023/10/05 09:17:04;;;;;;;0.22;0.20;;;;;;;21.67;60.36;100675.53;5306761;26;20048;-91
2023/10/05 09:19:29;;;;;;;0.47;0.28;;;;;;;21.65;60.36;100661.53;5311377;26;20056;-92
2023/10/05 09:24:24;;;;;;;1.12;1.02;;;;;;;21.93;60.37;100665.91;5343719;26;20064;-91
2023/10/05 09:27:09;;;;;;;0.17;0.13;;;;;;;21.95;60.38;100658.72;5302974;26;20056;-92
2023/10/05 09:29:36;;;;;;;1.55;0.30;;;;;;;22.37;60.40;100651.56;5329998;26;20080;-90
2023/10/05 09:32:08;;;;;;;0.25;0.22;;;;;;;22.30;60.39;100650.28;5305149;26;20735;-93
2023/10/05 09:34:38;;;;;;;0.37;0.37;;;;;;;22.35;60.40;100653.47;5309676;26;20060;-91
2023/10/05 09:37:07;;;;;;;0.03;0.03;;;;;;;22.57;60.41;100644.94;5326889;26;20074;-92
2023/10/05 09:39:43;;;;;;;0.00;0.00;;;;;;;22.76;60.42;100640.06;5312230;26;20083;-89
2023/10/05 09:42:26;;;;;;;0.00;0.00;;;;;;;22.67;60.42;100646.84;5350397;26;20028;-92
2023/10/05 09:44:53;;;;;;;0.00;0.00;;;;;;;22.82;60.42;100645.00;5313727;26;20108;-91
2023/10/05 09:47:41;;;;;;;0.00;0.00;;;;;;;23.11;60.43;100639.47;5330654;26;20025;-91
2023/10/05 09:50:13;;;;;;;0.03;0.03;;;;;;;23.15;60.44;100640.94;5324927;26;20056;-91
2023/10/05 09:53:02;;;;;;;0.10;0.00;;;;;;;23.34;60.46;100635.19;5335121;26;20029;-93
2023/10/05 09:56:20;;;;;;;0.30;0.17;;;;;;;23.28;60.45;100641.78;5349005;26;20052;-91
2023/10/05 09:59:23;;;;;;;0.00;0.00;;;;;;;23.49;60.45;100637.59;5325335;26;20050;-92
2023/10/05 10:02:19;;;;;;;0.00;0.00;;;;;;;23.30;60.45;100637.22;5335802;26;20036;-96
2023/10/05 10:04:52;;;;;;;0.00;0.00;;;;;;;23.68;60.47;100625.69;5333714;26;20028;-91
2023/10/05 10:14:15;;;;;;;0.25;0.13;;;;;;;24.32;60.50;100613.81;5349413;26;20112;-92
2023/10/05 10:16:47;;;;;;;0.00;0.00;;;;;;;24.36;60.50;100609.94;5311002;26;20056;-92
2023/10/05 10:19:19;;;;;;;1.55;0.65;;;;;;;24.36;60.50;100598.44;5310581;26;20059;-91
2023/10/05 10:21:57;;;;;;;0.00;0.00;;;;;;;24.39;60.51;100601.75;5329313;26;20052;-91
2023/10/05 10:24:24;;;;;;;0.00;0.00;;;;;;;24.65;60.52;100599.75;5328723;26;20443;-90
2023/10/05 10:27:11;;;;;;;0.70;0.15;;;;;;;24.71;60.52;100593.94;5328005;26;20107;-91
2023/10/05 10:30:11;;;;;;;;;;;;;;;;;;;;;
2023/10/05 10:41:10;;;;;;;1.40;0.55;;;;;;;24.68;60.53;100583.53;5367367;26;20808;-91
2023/10/05 11:02:23;;;;;;;0.10;0.10;;;;;;;24.43;60.52;100552.66;5306470;27;20129;-88
2023/10/05 11:04:54;;;;;;;0.20;0.20;;;;;;;24.25;60.50;100553.16;5318918;27;20072;-90
2023/10/05 11:07:28;;;;;;;0.00;0.00;;;;;;;24.32;60.51;100547.28;5297695;26;20044;-88
2023/10/05 11:09:53;;;;;;;0.35;0.35;;;;;;;24.46;60.52;100546.22;5324216;26;20056;-88
2023/10/05 11:12:24;;;;;;;0.08;0.08;;;;;;;24.50;60.51;100539.69;5342693;26;20081;-89
2023/10/05 11:14:56;;;;;;;0.03;0.03;;;;;;;24.69;60.53;100539.97;5305656;26;20109;-91
2023/10/05 11:17:44;;;;;;;0.10;0.10;;;;;;;24.77;60.54;100529.56;5278659;27;20104;-88
2023/10/05 11:20:23;;;;;;;0.00;0.00;;;;;;;25.09;60.55;100518.22;5306759;26;20111;-89
2023/10/05 11:23:37;;;;;;;0.07;0.07;;;;;;;24.98;60.55;100516.34;5306443;26;20165;-90
2023/10/05 11:27:06;;;;;;;;;;;;;;;;;;;;;
2023/10/05 11:29:15;;;;;;;0.05;0.05;;;;;;;24.99;60.55;100512.75;5288844;26;20052;-89
2023/10/05 11:31:40;;;;;;;0.00;0.00;;;;;;;25.17;60.56;100509.59;5323655;26;20065;-88
2023/10/05 11:34:10;;;;;;;0.13;0.13;;;;;;;24.99;60.55;100506.56;5322877;26;20091;-88
2023/10/05 11:36:44;;;;;;;0.17;0.17;;;;;;;24.89;60.53;100502.94;5341935;26;20052;-88
2023/10/05 11:40:23;;;;;;;0.13;0.13;;;;;;;24.94;60.54;100496.25;5324515;26;20062;-92
2023/10/05 11:46:12;;;;;;;0.10;0.10;;;;;;;24.84;60.54;100499.78;5205356;27;20156;-91
2023/10/05 11:48:55;;;;;;;1.08;0.68;;;;;;;24.82;60.53;100496.38;5221827;27;20108;-91
2023/10/05 11:52:27;;;;;;;0.00;0.00;;;;;;;24.84;60.54;100494.44;5213503;27;20427;-90
2023/10/05 11:54:24;;;;;;;0.00;0.00;;;;;;;24.79;60.54;100484.16;5191155;27;20519;-89
2023/10/05 11:56:55;;;;;;;0.10;0.00;;;;;;;24.83;60.55;100482.94;5196762;27;20077;-88
2023/10/05 11:59:31;;;;;;;0.10;0.10;;;;;;;24.97;60.54;100480.03;5279790;27;20583;-91
2023/10/05 12:02:47;;;;;;;;;;;;;;;;;;;;;
2023/10/05 12:19:59;;;;;;;;;;;;;;;;;;;;;
2023/10/05 12:22:47;;;;;;;0.00;0.00;;;;;;;25.14;60.56;100467.22;5108977;27;36166;-91
2023/10/05 12:25:24;;;;;;;0.30;0.10;;;;;;;24.88;60.54;100467.47;5151626;27;20053;-89
2023/10/05 12:27:49;;;;;;;0.00;0.00;;;;;;;24.88;60.54;100459.47;5245468;27;20052;-89
2023/10/05 12:30:47;;;;;;;0.25;0.25;;;;;;;24.82;60.53;100446.63;5261336;27;20462;-92
2023/10/05 12:33:55;;;;;;;0.00;0.00;;;;;;;24.81;60.53;100455.59;5240101;27;20075;-91
2023/10/05 12:36:36;;;;;;;;;;;;;;;;;;;;;
2023/10/05 12:42:26;;;;;;;0.40;0.40;;;;;;;25.18;60.56;100437.53;5299450;27;20501;-90
2023/10/05 12:45:04;;;;;;;0.00;0.00;;;;;;;24.93;60.55;100437.78;5245400;27;20144;-89
2023/10/05 12:48:05;;;;;;;0.00;0.00;;;;;;;24.86;60.55;100441.94;5265037;27;20756;-90
2023/10/05 13:31:53;;;;;;;0.00;0.00;;;;;;;24.80;60.54;100395.31;5030421;28;20259;-91
2023/10/05 13:34:19;;;;;;;1.62;0.70;;;;;;;24.60;60.53;100394.25;5068157;28;20085;-90
2023/10/05 13:39:59;;;;;;;0.00;0.00;;;;;;;24.45;60.53;100395.50;5083911;28;20131;-88
2023/10/05 13:42:32;;;;;;;1.25;0.40;;;;;;;24.36;60.52;100396.22;5105101;27;20097;-91
2023/10/05 13:45:10;;;;;;;0.15;0.15;;;;;;;24.49;60.53;100391.62;5251349;27;20068;-90
2023/10/05 13:47:40;;;;;;;0.05;0.05;;;;;;;24.59;60.54;100389.91;5279437;27;20470;-92
2023/10/05 13:50:11;;;;;;;0.30;0.30;;;;;;;24.37;60.52;100387.25;5257976;27;20063;-89
2023/10/05 13:52:44;;;;;;;0.40;0.35;;;;;;;24.22;60.52;100377.81;5297870;26;20456;-90
2023/10/05 13:55:10;;;;;;;0.90;0.28;;;;;;;24.17;60.51;100387.00;5311393;26;20067;-90
2023/10/05 13:57:36;;;;;;;0.00;0.00;;;;;;;24.01;60.50;100386.50;5325291;26;20070;-90
2023/10/05 14:00:17;;;;;;;0.57;0.52;;;;;;;24.05;60.51;100393.28;5331379;26;20442;-90
2023/10/05 14:02:43;;;;;;;0.05;0.05;;;;;;;23.88;60.50;100397.22;5350958;26;20068;-92
2023/10/05 14:05:10;;;;;;;0.00;0.00;;;;;;;23.90;60.50;100383.84;5331425;26;20069;-92
2023/10/05 14:07:36;;;;;;;0.20;0.20;;;;;;;23.81;60.50;100387.19;5351025;26;20063;-90
2023/10/05 14:10:05;;;;;;;0.30;0.30;;;;;;;23.79;60.49;100381.16;5350481;26;20067;-92
2023/10/05 14:12:31;;;;;;;0.00;0.00;;;;;;;23.71;60.48;100378.25;5351149;26;20417;-91
2023/10/05 14:14:58;;;;;;;0.00;0.00;;;;;;;23.92;60.50;100381.91;5351995;26;20728;-91
2023/10/05 14:17:24;;;;;;;0.05;0.05;;;;;;;23.74;60.49;100375.34;5351697;26;20065;-91
2023/10/05 14:19:50;;;;;;;0.43;0.35;;;;;;;23.69;60.49;100380.19;5323698;26;238057;-91
2023/10/05 14:22:15;;;;;;;0.10;0.10;;;;;;;23.80;60.50;100373.06;5350982;26;20060;-91
2023/10/05 14:24:49;;;;;;;0.20;0.20;;;;;;;23.71;60.48;100368.47;5351427;26;20078;-91
2023/10/05 14:27:16;;;;;;;0.17;0.10;;;;;;;23.65;60.49;100371.56;5334604;26;20055;-89
2023/10/05 14:29:47;;;;;;;0.30;0.30;;;;;;;23.60;60.48;100370.22;5332742;26;20064;-91
2023/10/05 14:32:13;;;;;;;3.83;0.60;;;;;;;23.46;60.47;100372.13;5333744;26;20074;-91
2023/10/05 14:34:41;;;;;;;0.77;0.52;;;;;;;23.40;60.46;100369.91;5350681;26;20063;-93